Tropical Cyclones
[Index]
Main Index Home Page Stock Weather Photos Extreme Storms Discussion Storm News and Storm Chasing Reports Tropical Cyclones / Hurricanes / Typhoons Weather Data and Links Wild Fires / Bushfires Weather Observation Techniques Weather Picture Catalogue Tornado Pictures and Reports Stock Video Footage and DVDs for sale
Season 1997-1998 Tropical Cyclone RON Track Map
Season 1997-1998 Summaries (Operational Data): [AU] [SIO] [SPAC] [SH]
<<- Previous TC | 1997-1998 Season | Next TC ->>

click for intensity scale information  Lat/long Grid: Show Hide

 Date Labels: Show Hide

Operational Tropical Cyclone Data

Name: RON
Number: 9810

01 Jan 1998 06:00 UTC to 08 Jan 1998 18:00 UTC

    date/time    lat    long     hPa   cat  kts
1998-01-01 06    9.0   165.5W   1000         30          
1998-01-01 12    8.8   166.5W   1000         30          
1998-01-01 18    9.0   167.5W   1000         30          
1998-01-02 00    9.5   167.5W    992    1    40          
1998-01-02 06    9.9   168.2W    987    1    45          
1998-01-02 12   10.1   169.3W    985    1    45          
1998-01-02 18   10.5   170.4W    984    2    50          
1998-01-03 00   10.9   171.0W    980    2    55          
1998-01-03 06   11.1   171.6W    975    2    60          
1998-01-03 12   11.4   171.8W    970    3    65          
1998-01-03 18   11.5   172.7W    965    3    70          
1998-01-04 00   11.6   173.0W    965    3    70          
1998-01-04 06   11.6   173.2W    955    3    80          
1998-01-04 12   12.0   173.6W    945    3    85          
1998-01-04 18   12.2   174.3W    925    4   100          
1998-01-05 00   12.3   175.0W    915    5   115          
1998-01-05 06   12.4   175.4W    900    5   125          
1998-01-05 12   12.6   175.8W    900    5   125          
1998-01-05 18   13.4   175.7W    900    5   125          
1998-01-06 00   13.9   175.8W    900    5   125          
1998-01-06 06   14.5   175.9W    900    5   125          
1998-01-06 12   15.0   175.6W    900    5   125          
1998-01-06 18   15.5   175.6W    920    5   110          
1998-01-07 00   16.3   174.7W    920    5   110          
1998-01-07 06   17.0   174.0W    920    5   110          
1998-01-07 12   17.9   173.1W    925    4   100          
1998-01-07 18   18.9   172.8W    935    4    90          
1998-01-08 00   20.9   172.0W    945    3    85          
1998-01-08 06   22.6   170.3W    950    3    80          
1998-01-08 12   24.8   170.2W    960    3    75          
1998-01-08 18   28.0   168.0W    972    3    65          
Winds are 10-min average.

Tropical cyclone tracks developed by Michael Bath using operational warnings and advisories and Google Maps.


[Australian Severe Weather index] [Copyright Notice] [Email Contacts] [Search This Site] [Privacy Policy]
Document: tropical_cyclone_ron.htm Updated: 4 September 2016